Time;durP1;ratioP1;P1;durP2;ratioP2;P2;SDS_P1;SDS_P2;PMS_P1;PMS_P2;Temp;Humidity;BMP_temperature;BMP_pressure;BME280_temperature;BME280_humidity;BME280_pressure;Samples;Min_cycle;Max_cycle;Signal;HPM_P1;HPM_P2
2022/06/10 00:00:08;;;;;;;;;;;11.70;99.90;;;;;;5001089;28;20359;-82
2022/06/10 00:02:34;;;;;;;;;;;11.70;99.90;;;;;;5018551;28;19921;-80
2022/06/10 00:05:00;;;;;;;;;;;11.70;99.90;;;;;;5000674;28;19921;-84
2022/06/10 00:07:27;;;;;;;;;;;11.70;99.90;;;;;;5001184;28;19925;-82
2022/06/10 00:09:53;;;;;;;;;;;11.70;99.90;;;;;;4986316;28;20401;-82
2022/06/10 00:12:18;;;;;;;;;;;11.70;99.90;;;;;;5001815;28;20270;-83
2022/06/10 00:14:44;;;;;;;;;;;11.70;99.90;;;;;;5014374;28;19920;-83
2022/06/10 00:17:09;;;;;;;;;;;11.70;99.90;;;;;;5000814;28;19918;-81
2022/06/10 00:19:41;;;;;;;;;;;11.70;99.90;;;;;;5032424;28;19917;-82
2022/06/10 00:22:07;;;;;;;;;;;11.70;99.90;;;;;;5046291;28;19924;-83
2022/06/10 00:24:35;;;;;;;;;;;11.70;99.90;;;;;;5030620;28;19921;-84
2022/06/10 00:27:01;;;;;;;;;;;11.80;99.90;;;;;;5048696;28;19929;-84
2022/06/10 00:29:26;;;;;;;;;;;11.70;99.90;;;;;;5008455;28;19925;-84
2022/06/10 00:31:52;;;;;;;;;;;11.70;99.90;;;;;;4994915;28;20018;-82
2022/06/10 00:34:19;;;;;;;;;;;11.70;99.90;;;;;;4997694;28;19924;-81
2022/06/10 00:36:45;;;;;;;;;;;11.60;99.90;;;;;;4996285;28;19943;-79
2022/06/10 00:39:10;;;;;;;;;;;11.70;99.90;;;;;;5014242;28;20398;-81
2022/06/10 00:41:40;;;;;;;;;;;11.60;99.90;;;;;;5029505;28;20016;-82
2022/06/10 00:44:25;;;;;;;;;;;11.60;99.90;;;;;;5051309;28;20020;-81
2022/06/10 00:46:51;;;;;;;;;;;11.70;99.90;;;;;;5004945;28;19944;-81
2022/06/10 00:49:16;;;;;;;;;;;11.70;99.90;;;;;;5033912;28;19917;-82
2022/06/10 00:51:45;;;;;;;;;;;13.80;99.90;;;;;;5001039;28;19925;-80
2022/06/10 00:54:29;;;;;;;;;;;11.70;99.90;;;;;;4998803;28;19918;-84
2022/06/10 00:57:04;;;;;;;;;;;11.70;99.90;;;;;;5007066;28;19917;-82
2022/06/10 00:59:36;;;;;;;;;;;11.80;99.90;;;;;;5002160;28;19924;-82
2022/06/10 01:02:04;;;;;;;;;;;11.80;99.90;;;;;;5006402;28;20028;-83
2022/06/10 01:04:30;;;;;;;;;;;11.90;99.90;;;;;;5017268;28;19956;-84
2022/06/10 01:06:56;;;;;;;;;;;11.90;99.90;;;;;;5031420;28;19921;-83
2022/06/10 01:09:22;;;;;;;;;;;11.90;99.90;;;;;;5049692;28;19921;-81
2022/06/10 01:12:06;;;;;;;;;;;10.60;99.90;;;;;;5024618;28;20440;-83
2022/06/10 01:14:51;;;;;;;;;;;12.00;99.90;;;;;;5013146;28;19924;-82
2022/06/10 01:17:55;;;;;;;;;;;12.00;99.90;;;;;;4997077;28;19917;-81
2022/06/10 01:20:23;;;;;;;;;;;12.00;99.90;;;;;;4932077;29;19925;-83
2022/06/10 01:23:08;;;;;;;;;;;12.00;99.90;;;;;;4923390;29;20408;-82
2022/06/10 01:25:36;;;;;;;;;;;12.00;99.90;;;;;;4973999;28;19918;-83
2022/06/10 01:28:08;;;;;;;;;;;12.10;99.90;;;;;;5046583;28;19925;-83
2022/06/10 01:30:53;;;;;;;;;;;12.00;99.90;;;;;;5030223;28;19921;-84
2022/06/10 01:33:31;;;;;;;;;;;12.00;99.90;;;;;;5019732;28;19921;-82
2022/06/10 01:36:03;;;;;;;;;;;12.00;99.90;;;;;;5014380;28;19917;-81
2022/06/10 01:38:39;;;;;;;;;;;12.00;99.90;;;;;;5013734;28;19956;-83
2022/06/10 01:41:05;;;;;;;;;;;12.00;99.90;;;;;;5009941;28;19920;-81
2022/06/10 01:43:43;;;;;;;;;;;12.10;99.90;;;;;;5013953;28;19917;-81
2022/06/10 01:46:19;;;;;;;;;;;12.00;99.90;;;;;;5025716;28;19928;-84
2022/06/10 01:49:04;;;;;;;;;;;12.10;99.90;;;;;;4996526;28;20009;-82
2022/06/10 01:51:38;;;;;;;;;;;12.10;99.90;;;;;;5023403;28;20457;-84
2022/06/10 01:54:06;;;;;;;;;;;12.10;99.90;;;;;;5005874;28;20374;-83
2022/06/10 01:56:35;;;;;;;;;;;12.00;99.90;;;;;;4997707;28;19924;-84
2022/06/10 01:59:08;;;;;;;;;;;12.00;99.90;;;;;;5015406;28;19921;-83
2022/06/10 02:01:37;;;;;;;;;;;11.90;99.90;;;;;;4993857;28;19922;-81
2022/06/10 02:04:19;;;;;;;;;;;11.90;99.90;;;;;;5019802;28;19961;-82
2022/06/10 02:07:20;;;;;;;;;;;11.90;99.90;;;;;;5037666;28;19929;-84
2022/06/10 02:09:50;;;;;;;;;;;11.80;99.90;;;;;;4991519;28;19921;-84
2022/06/10 02:12:37;;;;;;;;;;;11.70;99.90;;;;;;5001076;28;19921;-81
2022/06/10 02:15:20;;;;;;;;;;;11.70;99.90;;;;;;5007342;28;20014;-84
2022/06/10 02:17:52;;;;;;;;;;;11.70;99.90;;;;;;5017372;28;19921;-83
2022/06/10 02:20:22;;;;;;;;;;;11.60;99.90;;;;;;5012169;28;19967;-81
2022/06/10 02:22:50;;;;;;;;;;;11.70;99.90;;;;;;5020640;28;19928;-82
2022/06/10 02:25:37;;;;;;;;;;;11.60;99.90;;;;;;5033298;28;19917;-82
2022/06/10 02:28:05;;;;;;;;;;;11.60;99.90;;;;;;5031240;28;20003;-82
2022/06/10 02:30:51;;;;;;;;;;;11.60;99.90;;;;;;4996856;28;19917;-82
2022/06/10 02:33:16;;;;;;;;;;;11.50;99.90;;;;;;4982597;28;19917;-83
2022/06/10 02:35:53;;;;;;;;;;;11.50;99.90;;;;;;5013421;28;20385;-81
2022/06/10 02:38:18;;;;;;;;;;;11.50;99.90;;;;;;5014439;28;19923;-83
2022/06/10 02:41:05;;;;;;;;;;;11.60;99.90;;;;;;5043426;28;19925;-82
2022/06/10 02:43:40;;;;;;;;;;;11.50;99.90;;;;;;5025847;28;20004;-81
2022/06/10 02:46:08;;;;;;;;;;;11.50;99.90;;;;;;5045216;28;19968;-82
2022/06/10 02:48:43;;;;;;;;;;;11.50;99.90;;;;;;5011943;28;19917;-81
2022/06/10 02:51:08;;;;;;;;;;;11.50;99.90;;;;;;5014770;28;19944;-81
2022/06/10 02:53:34;;;;;;;;;;;11.50;99.90;;;;;;5031922;28;19948;-80
2022/06/10 02:56:00;;;;;;;;;;;11.50;99.90;;;;;;5001848;28;20362;-82
2022/06/10 03:01:40;;;;;;;;;;;11.50;99.90;;;;;;4946889;28;20335;-85
2022/06/10 03:04:45;;;;;;;;;;;11.40;99.90;;;;;;5011992;28;19925;-84
2022/06/10 03:07:15;;;;;;;;;;;11.40;99.90;;;;;;4957905;28;20014;-81
2022/06/10 03:10:01;;;;;;;;;;;11.40;99.90;;;;;;4958691;28;19918;-84
2022/06/10 03:12:37;;;;;;;;;;;11.40;99.90;;;;;;4991614;28;19949;-82
2022/06/10 03:15:14;;;;;;;;;;;11.40;99.90;;;;;;4990488;28;19906;-82
2022/06/10 03:17:45;;;;;;;;;;;11.30;99.90;;;;;;4986050;28;19925;-82
2022/06/10 03:20:11;;;;;;;;;;;11.40;99.90;;;;;;5044263;28;19917;-83
2022/06/10 03:22:55;;;;;;;;;;;11.40;99.90;;;;;;5028344;28;19928;-83
2022/06/10 03:25:24;;;;;;;;;;;11.40;99.90;;;;;;5012949;28;20001;-81
2022/06/10 03:28:05;;;;;;;;;;;11.40;99.90;;;;;;5008144;28;19921;-84
2022/06/10 03:30:35;;;;;;;;;;;11.50;99.90;;;;;;5001868;28;19932;-83
2022/06/10 03:33:11;;;;;;;;;;;11.50;99.90;;;;;;5024315;28;19920;-86
2022/06/10 03:35:45;;;;;;;;;;;11.40;99.90;;;;;;4996016;28;19917;-83
2022/06/10 03:38:12;;;;;;;;;;;11.40;99.90;;;;;;5027859;28;20294;-84
2022/06/10 03:40:37;;;;;;;;;;;11.40;99.90;;;;;;5038150;28;20333;-84
2022/06/10 03:43:04;;;;;;;;;;;11.40;99.90;;;;;;4998839;28;19917;-86
2022/06/10 03:45:36;;;;;;;;;;;11.40;99.90;;;;;;5054090;28;19917;-80
2022/06/10 03:48:10;;;;;;;;;;;11.50;99.90;;;;;;5020432;28;19921;-85
2022/06/10 03:50:38;;;;;;;;;;;11.50;99.90;;;;;;4995012;28;19944;-85
2022/06/10 03:53:05;;;;;;;;;;;11.50;99.90;;;;;;5011595;28;19921;-84
2022/06/10 03:55:30;;;;;;;;;;;11.60;99.90;;;;;;5010561;28;19917;-82
2022/06/10 03:57:56;;;;;;;;;;;11.60;99.90;;;;;;4981709;28;19917;-82
2022/06/10 04:00:24;;;;;;;;;;;11.70;99.90;;;;;;5024569;28;19959;-83
2022/06/10 04:02:49;;;;;;;;;;;11.80;99.90;;;;;;5015692;28;20259;-83
2022/06/10 04:05:15;;;;;;;;;;;11.90;99.90;;;;;;5006196;28;19928;-82
2022/06/10 04:07:42;;;;;;;;;;;12.00;99.90;;;;;;5018773;28;20347;-84
2022/06/10 04:10:09;;;;;;;;;;;11.90;99.90;;;;;;5023067;28;19917;-84
2022/06/10 04:12:38;;;;;;;;;;;12.00;99.90;;;;;;5020283;28;19924;-83
2022/06/10 04:15:04;;;;;;;;;;;12.10;99.90;;;;;;5020878;28;19921;-83
2022/06/10 04:17:30;;;;;;;;;;;12.20;99.90;;;;;;5018520;28;19924;-83
2022/06/10 04:19:57;;;;;;;;;;;12.20;99.90;;;;;;5016263;28;19917;-81
2022/06/10 04:22:31;;;;;;;;;;;12.30;99.90;;;;;;5039795;28;20056;-83
2022/06/10 04:24:57;;;;;;;;;;;12.40;99.90;;;;;;5032227;28;20007;-84
2022/06/10 04:27:25;;;;;;;;;;;12.40;99.90;;;;;;5023336;28;19924;-82
2022/06/10 04:29:51;;;;;;;;;;;12.60;99.90;;;;;;5020411;28;20013;-80
2022/06/10 04:32:22;;;;;;;;;;;12.60;99.90;;;;;;4983336;28;19918;-85
2022/06/10 04:34:48;;;;;;;;;;;12.70;99.90;;;;;;5009677;28;19940;-84
2022/06/10 04:37:13;;;;;;;;;;;12.70;99.90;;;;;;4998463;28;20048;-80
2022/06/10 04:39:41;;;;;;;;;;;12.80;99.90;;;;;;4982197;28;20000;-81
2022/06/10 04:42:07;;;;;;;;;;;13.20;99.90;;;;;;5034315;28;19917;-82
2022/06/10 04:44:32;;;;;;;;;;;12.80;99.90;;;;;;5027434;28;20421;-82
2022/06/10 04:46:58;;;;;;;;;;;13.20;99.90;;;;;;5036800;28;20287;-82
2022/06/10 04:49:24;;;;;;;;;;;13.40;99.90;;;;;;5031829;28;19921;-83
2022/06/10 04:51:49;;;;;;;;;;;13.50;99.90;;;;;;5030359;28;19921;-84
2022/06/10 04:54:18;;;;;;;;;;;13.70;99.90;;;;;;5025891;28;19975;-83
2022/06/10 04:56:43;;;;;;;;;;;14.10;99.90;;;;;;5000752;28;19922;-85
2022/06/10 04:59:09;;;;;;;;;;;14.20;99.90;;;;;;5042134;28;19918;-84
2022/06/10 05:01:35;;;;;;;;;;;14.30;99.90;;;;;;5027787;28;19916;-83
2022/06/10 05:04:03;;;;;;;;;;;14.40;99.90;;;;;;5028609;28;19917;-83
2022/06/10 05:06:29;;;;;;;;;;;14.50;99.90;;;;;;4997338;28;19924;-84
2022/06/10 05:08:55;;;;;;;;;;;14.60;99.90;;;;;;5012408;28;19940;-82
2022/06/10 05:11:20;;;;;;;;;;;14.70;99.90;;;;;;5000581;28;19917;-81
2022/06/10 05:13:46;;;;;;;;;;;14.70;99.90;;;;;;5045640;28;20030;-86
2022/06/10 05:16:12;;;;;;;;;;;14.70;99.90;;;;;;5049903;28;19924;-81
2022/06/10 05:18:38;;;;;;;;;;;14.70;99.90;;;;;;5019438;28;20379;-84
2022/06/10 05:21:04;;;;;;;;;;;14.70;99.90;;;;;;4998919;28;19956;-84
2022/06/10 05:23:31;;;;;;;;;;;14.70;99.90;;;;;;5004967;28;19987;-84
2022/06/10 05:25:58;;;;;;;;;;;14.70;99.90;;;;;;5018677;28;19917;-86
2022/06/10 05:28:23;;;;;;;;;;;14.70;99.90;;;;;;5049351;28;19921;-82
2022/06/10 05:30:49;;;;;;;;;;;14.70;99.90;;;;;;5029392;28;20259;-83
2022/06/10 05:33:15;;;;;;;;;;;14.80;99.90;;;;;;4981212;28;19944;-82
2022/06/10 05:35:42;;;;;;;;;;;14.90;99.90;;;;;;5015574;28;20431;-83
2022/06/10 05:38:07;;;;;;;;;;;14.90;99.90;;;;;;5000211;28;19925;-82
2022/06/10 05:40:33;;;;;;;;;;;15.00;99.90;;;;;;4997034;28;19917;-84
2022/06/10 05:42:59;;;;;;;;;;;15.10;99.90;;;;;;5004885;28;20626;-84
2022/06/10 05:45:25;;;;;;;;;;;15.10;99.90;;;;;;5019820;28;20268;-83
2022/06/10 05:47:53;;;;;;;;;;;15.20;99.90;;;;;;5065449;28;19921;-81
2022/06/10 05:50:22;;;;;;;;;;;15.20;99.90;;;;;;5004425;28;20021;-82
2022/06/10 05:52:48;;;;;;;;;;;15.30;99.90;;;;;;5030165;28;19918;-82
2022/06/10 05:55:14;;;;;;;;;;;15.30;99.90;;;;;;5037073;28;19966;-81
2022/06/10 05:57:40;;;;;;;;;;;15.30;99.90;;;;;;5001223;28;19919;-82
2022/06/10 06:00:13;;;;;;;;;;;15.40;99.90;;;;;;4981555;28;19924;-84
2022/06/10 06:02:39;;;;;;;;;;;15.40;99.90;;;;;;5016675;28;19917;-81
2022/06/10 06:05:05;;;;;;;;;;;15.40;99.90;;;;;;5056218;28;19921;-84
2022/06/10 06:07:31;;;;;;;;;;;15.50;99.90;;;;;;4998480;28;19928;-83
2022/06/10 06:09:57;;;;;;;;;;;15.50;99.90;;;;;;5041016;28;19921;-83
2022/06/10 06:12:22;;;;;;;;;;;15.60;99.90;;;;;;4997570;28;20227;-82
2022/06/10 06:14:54;;;;;;;;;;;15.60;99.90;;;;;;4986140;28;19927;-83
2022/06/10 06:17:20;;;;;;;;;;;15.70;99.90;;;;;;5013836;28;20007;-83
2022/06/10 06:19:46;;;;;;;;;;;15.80;99.90;;;;;;5011923;28;19922;-83
2022/06/10 06:22:13;;;;;;;;;;;15.80;99.90;;;;;;5011585;28;19957;-82
2022/06/10 06:24:39;;;;;;;;;;;15.90;99.90;;;;;;5013006;28;19918;-83
2022/06/10 06:27:05;;;;;;;;;;;16.00;99.90;;;;;;5013098;28;19929;-81
2022/06/10 06:29:31;;;;;;;;;;;16.20;99.90;;;;;;5025418;28;19991;-82
2022/06/10 06:31:57;;;;;;;;;;;16.30;99.90;;;;;;5013503;28;20350;-82
2022/06/10 06:34:24;;;;;;;;;;;16.40;99.90;;;;;;5011562;28;20445;-82
2022/06/10 06:36:51;;;;;;;;;;;16.50;99.90;;;;;;5013414;28;19917;-84
2022/06/10 06:39:17;;;;;;;;;;;16.50;99.90;;;;;;5012535;28;19941;-84
2022/06/10 06:41:43;;;;;;;;;;;16.50;99.90;;;;;;5026138;28;20003;-82
2022/06/10 06:44:10;;;;;;;;;;;16.60;99.90;;;;;;5019475;28;19968;-83
2022/06/10 06:46:37;;;;;;;;;;;16.60;99.90;;;;;;5031731;28;19932;-83
2022/06/10 06:49:05;;;;;;;;;;;16.60;99.90;;;;;;5029180;28;19999;-84
2022/06/10 06:51:30;;;;;;;;;;;16.50;99.90;;;;;;5026181;28;19921;-86
2022/06/10 06:53:57;;;;;;;;;;;16.30;99.90;;;;;;5020384;28;19917;-83
2022/06/10 06:56:23;;;;;;;;;;;16.10;99.90;;;;;;5002414;28;19928;-81
2022/06/10 06:58:49;;;;;;;;;;;16.10;99.90;;;;;;5046814;28;19917;-82
2022/06/10 07:01:14;;;;;;;;;;;16.10;99.90;;;;;;5045591;28;19928;-84
2022/06/10 07:03:40;;;;;;;;;;;16.20;99.90;;;;;;5012493;28;19917;-82
2022/06/10 07:06:05;;;;;;;;;;;16.40;99.90;;;;;;5008835;28;20374;-82
2022/06/10 07:08:31;;;;;;;;;;;16.50;99.90;;;;;;4979511;28;19922;-85
2022/06/10 07:11:07;;;;;;;;;;;16.60;99.90;;;;;;5027933;28;19963;-82
2022/06/10 07:13:33;;;;;;;;;;;16.60;99.90;;;;;;5030826;28;19924;-82
2022/06/10 07:16:00;;;;;;;;;;;16.80;99.90;;;;;;5018490;28;20278;-82
2022/06/10 07:18:27;;;;;;;;;;;17.00;99.90;;;;;;4989545;28;20272;-81
2022/06/10 07:20:52;;;;;;;;;;;17.20;99.90;;;;;;4987880;28;20397;-83
2022/06/10 07:23:19;;;;;;;;;;;17.40;99.90;;;;;;5025790;28;19957;-84
2022/06/10 07:25:45;;;;;;;;;;;17.40;99.90;;;;;;5001224;28;19921;-80
2022/06/10 07:28:11;;;;;;;;;;;17.40;99.90;;;;;;5017280;28;19921;-82
2022/06/10 07:30:38;;;;;;;;;;;17.40;99.90;;;;;;5031092;28;20373;-85
2022/06/10 07:33:04;;;;;;;;;;;17.40;99.90;;;;;;5028600;28;19921;-84
2022/06/10 07:35:29;;;;;;;;;;;17.30;99.90;;;;;;5007381;28;19918;-79
2022/06/10 07:37:55;;;;;;;;;;;17.30;99.90;;;;;;4993477;28;19917;-84
2022/06/10 07:43:13;;;;;;;;;;;17.30;99.90;;;;;;5028653;28;19917;-83
2022/06/10 07:45:41;;;;;;;;;;;17.30;99.90;;;;;;5016528;28;20401;-84
2022/06/10 07:48:07;;;;;;;;;;;17.20;99.90;;;;;;5005784;28;19922;-82
2022/06/10 07:50:34;;;;;;;;;;;17.30;99.90;;;;;;5019935;28;19947;-81
2022/06/10 07:53:00;;;;;;;;;;;17.30;99.90;;;;;;5015274;28;19924;-83
2022/06/10 07:55:26;;;;;;;;;;;17.40;99.90;;;;;;4999282;28;19922;-83
2022/06/10 07:57:52;;;;;;;;;;;17.60;99.90;;;;;;4999300;28;19921;-83
2022/06/10 08:00:19;;;;;;;;;;;17.90;99.90;;;;;;5015911;28;20000;-83
2022/06/10 08:02:44;;;;;;;;;;;18.00;99.90;;;;;;5013860;28;20390;-81
2022/06/10 08:05:12;;;;;;;;;;;18.10;99.90;;;;;;5046018;28;20008;-83
2022/06/10 08:07:41;;;;;;;;;;;18.10;99.90;;;;;;5014758;28;19929;-84
2022/06/10 08:10:14;;;;;;;;;;;18.20;99.90;;;;;;5039060;28;19917;-81
2022/06/10 08:12:40;;;;;;;;;;;18.30;99.90;;;;;;5007814;28;19964;-84
2022/06/10 08:15:06;;;;;;;;;;;18.30;99.90;;;;;;5012127;28;19921;-80
2022/06/10 08:17:31;;;;;;;;;;;18.10;99.90;;;;;;5005905;28;19905;-83
2022/06/10 08:19:57;;;;;;;;;;;17.70;99.90;;;;;;5051162;28;19975;-81
2022/06/10 08:22:35;;;;;;;;;;;17.40;99.90;;;;;;5025311;28;20004;-83
2022/06/10 08:25:06;;;;;;;;;;;17.20;99.90;;;;;;4998338;28;20358;-83
2022/06/10 08:27:32;;;;;;;;;;;17.10;99.90;;;;;;5010505;28;19921;-82
2022/06/10 08:29:57;;;;;;;;;;;17.10;99.90;;;;;;5050881;28;19924;-83
2022/06/10 08:32:23;;;;;;;;;;;17.20;99.90;;;;;;5051118;28;19924;-81
2022/06/10 08:34:49;;;;;;;;;;;17.30;99.90;;;;;;5033312;28;20366;-81
2022/06/10 08:37:16;;;;;;;;;;;17.40;99.90;;;;;;5027153;28;19968;-83
2022/06/10 08:39:42;;;;;;;;;;;17.30;99.90;;;;;;5033954;28;19940;-82
2022/06/10 08:42:26;;;;;;;;;;;17.20;99.90;;;;;;5007410;28;19917;-79
2022/06/10 08:44:54;;;;;;;;;;;17.20;99.90;;;;;;5024176;28;20278;-82
2022/06/10 08:47:22;;;;;;;;;;;17.20;99.90;;;;;;5022023;28;20397;-81
2022/06/10 08:50:07;;;;;;;;;;;17.30;99.90;;;;;;5042751;28;20386;-82
2022/06/10 08:52:40;;;;;;;;;;;17.50;99.90;;;;;;5022664;28;19922;-83
2022/06/10 08:55:06;;;;;;;;;;;17.80;99.90;;;;;;5028332;28;19917;-81
2022/06/10 08:57:36;;;;;;;;;;;18.00;99.90;;;;;;5044514;28;20277;-83
2022/06/10 09:00:04;;;;;;;;;;;18.00;99.90;;;;;;4978530;28;19918;-81
2022/06/10 09:02:32;;;;;;;;;;;18.20;99.90;;;;;;5004913;28;19917;-82
2022/06/10 09:05:06;;;;;;;;;;;18.20;99.90;;;;;;5007063;28;19944;-82
2022/06/10 09:07:55;;;;;;;;;;;18.10;99.90;;;;;;5034322;28;20024;-81
2022/06/10 09:10:24;;;;;;;;;;;18.00;99.90;;;;;;5008637;28;20326;-81
2022/06/10 09:13:09;;;;;;;;;;;17.80;99.90;;;;;;5011891;28;19917;-81
2022/06/10 09:15:39;;;;;;;;;;;17.80;99.90;;;;;;5023947;28;19925;-82
2022/06/10 09:18:13;;;;;;;;;;;17.90;99.90;;;;;;5029196;28;19927;-82
2022/06/10 09:20:46;;;;;;;;;;;18.00;99.90;;;;;;5049202;28;19917;-82
2022/06/10 09:23:17;;;;;;;;;;;18.40;99.90;;;;;;5032780;28;20296;-81
2022/06/10 09:25:44;;;;;;;;;;;18.70;99.90;;;;;;5042807;28;19917;-83
2022/06/10 09:28:15;;;;;;;;;;;18.90;99.90;;;;;;5061053;28;20003;-81
2022/06/10 09:31:06;;;;;;;;;;;19.20;99.90;;;;;;5014658;28;19964;-80
2022/06/10 09:33:38;;;;;;;;;;;19.30;99.90;;;;;;4996878;28;19923;-82
2022/06/10 09:36:07;;;;;;;;;;;19.50;99.90;;;;;;5030003;28;19921;-81
2022/06/10 09:38:51;;;;;;;;;;;19.50;99.90;;;;;;5032765;28;19925;-81
2022/06/10 09:41:31;;;;;;;;;;;19.50;99.90;;;;;;5014442;28;19960;-82
2022/06/10 09:44:06;;;;;;;;;;;19.30;99.90;;;;;;5006562;28;19956;-83
2022/06/10 09:46:32;;;;;;;;;;;19.00;99.90;;;;;;5019187;28;19917;-82
2022/06/10 09:49:16;;;;;;;;;;;18.90;99.90;;;;;;5019682;28;19924;-83
2022/06/10 09:51:53;;;;;;;;;;;18.70;99.90;;;;;;5021120;28;19972;-82
2022/06/10 09:54:27;;;;;;;;;;;18.70;99.90;;;;;;5002194;28;20004;-84
2022/06/10 09:57:12;;;;;;;;;;;18.60;99.90;;;;;;5015842;28;19924;-82
2022/06/10 10:00:07;;;;;;;;;;;18.60;99.90;;;;;;5034457;28;20017;-83
2022/06/10 10:02:47;;;;;;;;;;;18.60;99.90;;;;;;5019349;28;19917;-82
2022/06/10 10:05:18;;;;;;;;;;;18.70;99.90;;;;;;4997118;28;20282;-83
2022/06/10 10:07:47;;;;;;;;;;;18.70;99.90;;;;;;5001316;28;19975;-81
2022/06/10 10:10:25;;;;;;;;;;;18.90;99.90;;;;;;5012564;28;19918;-82
2022/06/10 10:13:00;;;;;;;;;;;19.10;99.90;;;;;;5026503;28;19917;-82
2022/06/10 10:15:31;;;;;;;;;;;19.30;99.90;;;;;;4995731;28;20338;-82
2022/06/10 10:17:57;;;;;;;;;;;19.20;99.90;;;;;;5011875;28;20259;-83
2022/06/10 10:20:27;;;;;;;;;;;19.20;99.90;;;;;;5012150;28;20004;-83
2022/06/10 10:22:53;;;;;;;;;;;19.30;99.90;;;;;;5003485;28;19917;-83
2022/06/10 10:25:20;;;;;;;;;;;19.30;99.90;;;;;;5003983;28;20366;-82
2022/06/10 10:27:47;;;;;;;;;;;19.40;99.90;;;;;;5010465;28;19928;-82
2022/06/10 10:30:21;;;;;;;;;;;19.50;99.90;;;;;;5007368;28;19927;-83
2022/06/10 10:32:55;;;;;;;;;;;19.40;99.90;;;;;;5042228;28;19992;-83
2022/06/10 10:35:23;;;;;;;;;;;19.20;99.90;;;;;;4996317;28;19964;-83
2022/06/10 10:37:54;;;;;;;;;;;19.30;99.90;;;;;;5002654;28;20000;-82
2022/06/10 10:40:21;;;;;;;;;;;19.50;99.90;;;;;;5019706;28;19918;-81
2022/06/10 10:42:47;;;;;;;;;;;19.80;99.90;;;;;;5017326;28;19917;-82
2022/06/10 10:45:30;;;;;;;;;;;20.00;99.90;;;;;;5019163;28;19924;-83
2022/06/10 10:48:00;;;;;;;;;;;20.30;99.90;;;;;;5012803;28;19925;-80
2022/06/10 10:50:28;;;;;;;;;;;20.20;99.90;;;;;;5012346;28;20346;-83
2022/06/10 10:52:53;;;;;;;;;;;20.20;99.90;;;;;;5018409;28;19923;-82
2022/06/10 10:55:22;;;;;;;;;;;20.10;99.90;;;;;;4999463;28;20324;-81
2022/06/10 10:58:03;;;;;;;;;;;19.90;99.90;;;;;;4999855;28;20374;-82
2022/06/10 11:00:31;;;;;;;;;;;19.80;99.90;;;;;;4998843;28;19924;-82
2022/06/10 11:02:58;;;;;;;;;;;19.60;99.90;;;;;;5061374;28;20640;-83
2022/06/10 11:05:35;;;;;;;;;;;19.40;99.90;;;;;;5015178;28;19928;-82
2022/06/10 11:08:13;;;;;;;;;;;19.40;99.90;;;;;;5047679;28;19921;-81
2022/06/10 11:10:50;;;;;;;;;;;19.40;99.90;;;;;;5022146;28;19917;-81
2022/06/10 11:13:25;;;;;;;;;;;19.30;99.90;;;;;;5031660;28;19916;-81
2022/06/10 11:15:51;;;;;;;;;;;19.30;99.90;;;;;;5011400;28;19924;-82
2022/06/10 11:18:17;;;;;;;;;;;19.30;99.90;;;;;;5029758;28;19937;-83
2022/06/10 11:20:42;;;;;;;;;;;19.40;99.90;;;;;;5019736;28;19918;-81
2022/06/10 11:23:26;;;;;;;;;;;19.60;99.90;;;;;;5046900;28;19917;-82
2022/06/10 11:26:01;;;;;;;;;;;19.80;99.90;;;;;;5019447;28;19996;-83
2022/06/10 11:28:27;;;;;;;;;;;20.00;99.90;;;;;;5021309;28;19924;-82
2022/06/10 11:30:53;;;;;;;;;;;20.10;99.90;;;;;;5017728;28;19917;-82
2022/06/10 11:33:30;;;;;;;;;;;20.20;99.90;;;;;;5014911;28;19965;-82
2022/06/10 11:36:06;;;;;;;;;;;20.20;99.90;;;;;;5000885;28;20246;-81
2022/06/10 11:38:34;;;;;;;;;;;20.20;99.90;;;;;;5016073;28;19923;-82
2022/06/10 11:41:12;;;;;;;;;;;20.30;99.90;;;;;;5024604;28;19921;-81
2022/06/10 11:43:41;;;;;;;;;;;20.50;99.90;;;;;;5032278;28;19916;-81
2022/06/10 11:46:12;;;;;;;;;;;20.80;99.90;;;;;;5009762;28;20000;-84
2022/06/10 11:48:56;;;;;;;;;;;21.10;99.90;;;;;;5003075;28;19925;-82
2022/06/10 11:51:28;;;;;;;;;;;21.30;99.90;;;;;;5021552;28;20035;-80
2022/06/10 11:54:00;;;;;;;;;;;21.30;99.90;;;;;;5055296;28;20377;-83
2022/06/10 11:59:49;;;;;;;;;;;21.00;99.90;;;;;;5021277;28;19944;-82
2022/06/10 12:02:21;;;;;;;;;;;20.70;99.90;;;;;;5023774;28;19998;-82
2022/06/10 12:04:53;;;;;;;;;;;20.60;99.90;;;;;;5016334;28;19923;-84
2022/06/10 12:07:20;;;;;;;;;;;20.80;99.90;;;;;;5005445;28;20290;-82
2022/06/10 12:09:51;;;;;;;;;;;21.10;99.90;;;;;;4999229;28;19917;-83
2022/06/10 12:12:19;;;;;;;;;;;21.40;99.90;;;;;;4998246;28;19967;-83
2022/06/10 12:14:47;;;;;;;;;;;22.00;99.90;;;;;;4997810;28;19921;-82
2022/06/10 12:17:31;;;;;;;;;;;22.40;99.90;;;;;;5047206;28;20366;-83
2022/06/10 12:20:03;;;;;;;;;;;22.60;99.90;;;;;;5033912;28;19924;-81
2022/06/10 12:22:30;;;;;;;;;;;22.30;99.90;;;;;;5036936;28;19917;-83
2022/06/10 12:24:56;;;;;;;;;;;22.00;99.90;;;;;;5018274;28;19963;-83
2022/06/10 12:27:22;;;;;;;;;;;21.70;99.90;;;;;;5017784;28;19921;-81
2022/06/10 12:29:54;;;;;;;;;;;21.50;99.90;;;;;;5008241;28;19917;-82
2022/06/10 12:32:39;;;;;;;;;;;21.40;99.90;;;;;;5069695;28;20432;-82
2022/06/10 12:35:04;;;;;;;;;;;21.30;99.90;;;;;;5019129;28;19929;-82
2022/06/10 12:37:33;;;;;;;;;;;21.20;99.90;;;;;;5043514;28;19972;-81
2022/06/10 12:40:08;;;;;;;;;;;21.20;99.90;;;;;;5043431;28;20377;-83
2022/06/10 12:42:38;;;;;;;;;;;21.10;99.90;;;;;;5025603;28;19917;-83
2022/06/10 12:45:05;;;;;;;;;;;21.10;99.90;;;;;;5015040;28;19917;-84
2022/06/10 12:47:36;;;;;;;;;;;21.00;99.90;;;;;;5025605;28;20078;-83
2022/06/10 12:50:16;;;;;;;;;;;20.90;99.90;;;;;;5012438;28;20011;-82
2022/06/10 12:53:01;;;;;;;;;;;20.80;99.90;;;;;;5022627;28;20000;-82
2022/06/10 12:55:33;;;;;;;;;;;20.80;99.90;;;;;;5025748;28;20022;-85
2022/06/10 12:57:58;;;;;;;;;;;20.80;99.90;;;;;;5032553;28;19920;-83
2022/06/10 13:00:36;;;;;;;;;;;20.90;99.90;;;;;;5002587;28;19931;-82
2022/06/10 13:03:21;;;;;;;;;;;21.00;99.90;;;;;;5037549;28;20114;-83
2022/06/10 13:05:48;;;;;;;;;;;20.90;99.90;;;;;;5020470;28;20007;-82
2022/06/10 13:08:35;;;;;;;;;;;20.80;99.90;;;;;;5014763;28;19921;-84
2022/06/10 13:11:01;;;;;;;;;;;20.80;99.90;;;;;;5034579;28;19916;-82
2022/06/10 13:13:27;;;;;;;;;;;20.70;99.90;;;;;;5029720;28;20275;-83
2022/06/10 13:15:55;;;;;;;;;;;20.70;99.90;;;;;;5033916;28;19923;-81
2022/06/10 13:18:28;;;;;;;;;;;20.90;99.90;;;;;;5017694;28;19917;-83
2022/06/10 13:20:54;;;;;;;;;;;21.00;99.90;;;;;;5069260;28;19972;-84
2022/06/10 13:23:24;;;;;;;;;;;21.20;99.90;;;;;;5066103;28;19917;-84
2022/06/10 13:25:52;;;;;;;;;;;21.30;99.90;;;;;;5050474;28;20324;-82
2022/06/10 13:28:24;;;;;;;;;;;21.50;99.90;;;;;;5054638;28;19971;-84
2022/06/10 13:30:51;;;;;;;;;;;21.60;99.90;;;;;;5024513;28;19917;-80
2022/06/10 13:33:18;;;;;;;;;;;21.90;99.90;;;;;;5018957;28;19924;-82
2022/06/10 13:36:02;;;;;;;;;;;22.10;99.90;;;;;;5009707;28;20401;-82
2022/06/10 13:38:34;;;;;;;;;;;22.40;99.90;;;;;;5032761;28;19921;-81
2022/06/10 13:43:47;;;;;;;;;;;22.90;99.90;;;;;;5033003;28;19917;-83
2022/06/10 13:46:15;;;;;;;;;;;21.90;99.90;;;;;;5013034;28;19927;-82
2022/06/10 13:48:40;;;;;;;;;;;23.00;99.90;;;;;;5008578;28;20004;-83
2022/06/10 13:51:16;;;;;;;;;;;23.10;99.90;;;;;;5039323;28;19956;-81
2022/06/10 13:53:53;;;;;;;;;;;23.50;99.90;;;;;;5018621;28;19917;-83
2022/06/10 13:56:24;;;;;;;;;;;23.30;99.90;;;;;;5023779;28;20008;-81
2022/06/10 13:58:54;;;;;;;;;;;23.30;99.90;;;;;;5028078;28;19924;-81
2022/06/10 14:01:24;;;;;;;;;;;23.70;99.90;;;;;;5049912;28;19917;-82
2022/06/10 14:03:53;;;;;;;;;;;24.30;99.90;;;;;;5026711;28;19917;-83
2022/06/10 14:06:20;;;;;;;;;;;24.60;99.90;;;;;;5017632;28;19924;-82
2022/06/10 14:08:57;;;;;;;;;;;24.60;99.90;;;;;;5026272;28;19928;-82
2022/06/10 14:11:30;;;;;;;;;;;24.70;99.90;;;;;;5035362;28;20286;-84
2022/06/10 14:13:57;;;;;;;;;;;24.90;99.90;;;;;;5019329;28;19917;-84
2022/06/10 14:16:23;;;;;;;;;;;25.20;99.90;;;;;;5034354;28;19917;-81
2022/06/10 14:18:50;;;;;;;;;;;25.50;99.90;;;;;;5034752;28;19923;-81
2022/06/10 14:21:15;;;;;;;;;;;25.50;99.90;;;;;;5039390;28;19917;-82
2022/06/10 14:24:00;;;;;;;;;;;25.20;99.90;;;;;;5050050;28;19982;-83
2022/06/10 14:26:25;;;;;;;;;;;25.00;99.90;;;;;;5030461;28;19968;-81
2022/06/10 14:28:53;;;;;;;;;;;24.90;99.90;;;;;;5027513;28;20416;-82
2022/06/10 14:31:27;;;;;;;;;;;25.10;99.90;;;;;;5016110;28;19916;-83
2022/06/10 14:33:54;;;;;;;;;;;25.20;99.90;;;;;;5056634;28;19924;-80
2022/06/10 14:36:21;;;;;;;;;;;25.40;99.90;;;;;;5066552;28;20361;-81
2022/06/10 14:39:06;;;;;;;;;;;25.50;99.90;;;;;;5048455;28;20023;-81
2022/06/10 14:41:33;;;;;;;;;;;25.20;99.90;;;;;;5028164;28;19917;-83
2022/06/10 14:44:13;;;;;;;;;;;24.60;99.90;;;;;;5044023;28;19940;-82
2022/06/10 14:46:39;;;;;;;;;;;24.20;99.90;;;;;;5016402;28;19965;-81